Decoded Metar for KVRB (VERO BEACH in FL, USA) (IATA:VRB) | Meteo·Mobile Aviation Weather
aviador You're here:

KVRB Decoded Metar

VERO BEACH in FL, USA
Report Time2018-10-18 09:53:00
UTC Time2018-10-18 10:23:04
Flight Rules vfr VFR
Wind080° at 04 kt
W.Decomp.*RWY 11: 3.7 kt HW 1.6 kt LCW
RWY 04: 2.7 kt HW 2.9 kt RCW
W.Rank080° ranks 7
Current wind is below 080° avg. (8.3)
Visibility9999 m
Phenomena:N/A
Clouds:Few 020 Hf
Expected CloudBase > 800 ft AGL from Temp-Dew spread
CeilingNone
Temp25°C (ISA +10)
Dew Point23°C (89% RH)
QNH1020 hPa
Density Alt1,332 ft
Elevation33 ft
Report Wrong Elevation
Raw Report
METAR KVRB 180953Z AUTO 08004KT 10SM FEW020 25/23 A3013 RMK AO2 SLP201
T02500228=

Extra information for KVRB:More info

Metar Taf Metar & Taf Last 4 Metars F.Rules Stats Wind Profile Meteogram Temp Stats Airport Information Weather charts Add Link Nearby VenuesMetar ALERT Operation Metar Decoded Social comments

AIRNAV info for KVRB